createdAt,value
2018-12-05T00:00:09.635Z,5.50
2018-12-05T00:02:59.968Z,5.40
2018-12-05T00:05:35.712Z,5.50
2018-12-05T00:08:07.238Z,5.60
2018-12-05T00:10:39.112Z,5.50
2018-12-05T00:13:13.674Z,5.40
2018-12-05T00:15:46.546Z,5.40
2018-12-05T00:18:21.821Z,5.50
2018-12-05T00:20:57.202Z,5.50
2018-12-05T00:23:28.240Z,5.40
2018-12-05T00:26:03.128Z,5.30
2018-12-05T00:28:38.437Z,5.30
2018-12-05T00:31:08.613Z,5.40
2018-12-05T00:33:41.200Z,5.40
2018-12-05T00:36:12.378Z,5.50
2018-12-05T00:38:45.571Z,5.60
2018-12-05T00:41:16.903Z,5.50
2018-12-05T00:46:35.921Z,5.40
2018-12-05T00:49:09.479Z,5.40
2018-12-05T00:51:45.711Z,5.40
2018-12-05T00:54:18.736Z,5.30
2018-12-05T00:56:50.389Z,5.30
2018-12-05T00:59:24.773Z,5.40
2018-12-05T01:01:59.006Z,5.40
2018-12-05T01:04:31.423Z,5.50
2018-12-05T01:07:05.171Z,5.60
2018-12-05T01:09:36.913Z,5.60
2018-12-05T01:12:09.341Z,5.60
2018-12-05T01:14:43.590Z,5.60
2018-12-05T01:17:22.571Z,5.70
2018-12-05T01:19:58.152Z,5.70
2018-12-05T01:22:30.253Z,5.50
2018-12-05T01:25:04.774Z,5.60
2018-12-05T01:27:36.923Z,5.40
2018-12-05T01:30:08.724Z,5.20
2018-12-05T01:32:43.086Z,5.10
2018-12-05T01:35:15.957Z,5.10
2018-12-05T01:37:49.173Z,5.10
2018-12-05T01:40:19.891Z,5.20
2018-12-05T01:42:51.453Z,5.30
2018-12-05T01:45:21.680Z,5.30
2018-12-05T01:47:52.749Z,5.30
2018-12-05T01:50:24.843Z,5.40
2018-12-05T01:53:01.431Z,5.50
2018-12-05T01:55:33.650Z,5.40
2018-12-05T01:58:07.234Z,5.40
2018-12-05T02:00:38.643Z,5.30
2018-12-05T02:03:14.777Z,5.30
2018-12-05T02:05:45.292Z,5.20
2018-12-05T02:08:20.740Z,5.20
2018-12-05T02:10:51.907Z,5.20
2018-12-05T02:13:25.782Z,5.10
2018-12-05T02:15:58.331Z,5.10
2018-12-05T02:18:31.613Z,5.10
2018-12-05T02:21:04.100Z,4.90
2018-12-05T02:23:42.685Z,4.90
2018-12-05T02:31:37.949Z,4.80
2018-12-05T02:36:56.183Z,4.40
2018-12-05T02:39:28.468Z,4.40
2018-12-05T02:44:42.286Z,4.40
2018-12-05T02:47:17.686Z,4.40
2018-12-05T02:50:00.031Z,4.40
2018-12-05T02:52:44.244Z,4.30
2018-12-05T02:55:24.580Z,4.30
2018-12-05T02:57:58.326Z,4.30
2018-12-05T03:00:33.209Z,4.20
2018-12-05T03:03:12.856Z,4.10
2018-12-05T03:05:48.307Z,4.00
2018-12-05T03:08:24.147Z,4.00
2018-12-05T03:11:04.026Z,4.00
2018-12-05T03:13:42.756Z,4.00
2018-12-05T03:18:56.018Z,4.10
2018-12-05T03:27:15.883Z,4.50
2018-12-05T03:29:57.292Z,4.40
2018-12-05T03:32:44.964Z,4.30
2018-12-05T03:35:31.886Z,4.20
2018-12-05T03:38:07.166Z,4.30
2018-12-05T03:40:45.360Z,4.40
2018-12-05T03:43:24.582Z,4.50
2018-12-05T03:48:51.016Z,4.60
2018-12-05T03:54:09.011Z,4.60
2018-12-05T03:56:42.788Z,4.70
2018-12-05T03:59:18.148Z,4.70
2018-12-05T04:02:10.108Z,4.60
2018-12-05T04:04:49.425Z,4.60
2018-12-05T04:07:25.314Z,4.50
2018-12-05T04:10:01.547Z,4.50
2018-12-05T04:12:43.793Z,4.50
2018-12-05T04:15:25.412Z,4.60
2018-12-05T04:23:33.817Z,4.60
2018-12-05T04:32:06.375Z,4.60
2018-12-05T04:34:37.684Z,4.60
2018-12-05T04:43:17.688Z,4.80
2018-12-05T04:45:51.650Z,4.90
2018-12-05T04:59:03.178Z,4.60
2018-12-05T05:04:40.671Z,4.60
2018-12-05T05:10:14.341Z,4.50
2018-12-05T05:15:43.077Z,4.70
2018-12-05T05:18:14.666Z,4.70
2018-12-05T05:20:44.679Z,4.70
2018-12-05T05:23:14.010Z,4.80
2018-12-05T05:25:43.606Z,4.70
2018-12-05T05:28:12.847Z,4.60
2018-12-05T05:30:45.600Z,4.60
2018-12-05T05:33:21.574Z,4.60
2018-12-05T05:35:51.521Z,4.60
2018-12-05T05:38:24.081Z,4.60
2018-12-05T05:40:53.414Z,4.70
2018-12-05T05:43:23.597Z,4.70
2018-12-05T05:45:52.822Z,4.60
2018-12-05T05:48:22.016Z,4.50
2018-12-05T05:50:56.374Z,4.50
2018-12-05T05:53:33.968Z,4.60
2018-12-05T05:56:03.205Z,4.50
2018-12-05T05:58:36.541Z,4.60
2018-12-05T06:01:07.732Z,4.60
2018-12-05T06:03:36.977Z,4.60
2018-12-05T06:06:07.945Z,4.60
2018-12-05T06:08:37.186Z,4.70
2018-12-05T06:11:10.483Z,4.70
2018-12-05T06:13:40.617Z,4.70
2018-12-05T06:16:10.660Z,4.70
2018-12-05T06:18:39.849Z,4.60
2018-12-05T06:21:11.080Z,4.60
2018-12-05T06:23:40.299Z,4.60
2018-12-05T06:26:10.271Z,4.70
2018-12-05T06:28:39.489Z,4.80
2018-12-05T06:31:10.912Z,4.80
2018-12-05T06:33:40.219Z,4.90
2018-12-05T06:36:10.447Z,4.90
2018-12-05T06:38:39.690Z,4.90
2018-12-05T06:41:11.358Z,4.90
2018-12-05T06:43:40.564Z,5.00
2018-12-05T06:46:11.294Z,5.00
2018-12-05T06:48:40.523Z,5.00
2018-12-05T06:51:10.576Z,5.00
2018-12-05T06:53:41.073Z,5.00
2018-12-05T06:56:11.013Z,5.00
2018-12-05T06:58:40.563Z,5.00
2018-12-05T07:01:12.899Z,5.00
2018-12-05T07:03:42.194Z,4.90
2018-12-05T07:06:13.203Z,4.90
2018-12-05T07:08:42.403Z,4.80
2018-12-05T07:11:22.183Z,4.70
2018-12-05T07:13:56.102Z,4.70
2018-12-05T07:16:25.315Z,4.80
2018-12-05T07:18:54.922Z,4.90
2018-12-05T07:21:25.247Z,4.90
2018-12-05T07:23:55.315Z,5.00
2018-12-05T07:26:24.916Z,4.80
2018-12-05T07:28:54.509Z,4.80
2018-12-05T07:31:23.866Z,4.70
2018-12-05T07:33:54.998Z,4.70
2018-12-05T07:36:24.799Z,4.60
2018-12-05T07:38:54.526Z,4.60
2018-12-05T07:41:23.768Z,4.70
2018-12-05T07:43:52.995Z,4.80
2018-12-05T07:46:22.219Z,4.90
2018-12-05T07:48:51.477Z,5.00
2018-12-05T07:51:22.025Z,5.20
2018-12-05T07:53:51.345Z,5.30
2018-12-05T07:56:21.946Z,5.40
2018-12-05T07:58:52.671Z,5.50
2018-12-05T08:01:22.023Z,5.50
2018-12-05T08:03:51.976Z,5.50
2018-12-05T08:06:22.638Z,5.60
2018-12-05T08:08:53.037Z,5.60
2018-12-05T08:11:28.842Z,5.70
2018-12-05T08:13:58.069Z,5.80
2018-12-05T08:16:33.015Z,5.80
2018-12-05T08:19:02.229Z,5.80
2018-12-05T08:21:34.889Z,5.80
2018-12-05T08:24:07.128Z,5.80
2018-12-05T08:26:36.622Z,5.70
2018-12-05T08:29:06.397Z,5.70
2018-12-05T08:31:36.034Z,5.70
2018-12-05T08:34:06.251Z,5.80
2018-12-05T08:36:35.427Z,5.90
2018-12-05T08:39:06.656Z,5.90
2018-12-05T08:41:36.429Z,6.10
2018-12-05T08:44:07.503Z,6.20
2018-12-05T08:46:37.580Z,6.20
2018-12-05T08:49:06.857Z,6.30
2018-12-05T08:51:39.827Z,6.40
2018-12-05T08:54:09.334Z,6.30
2018-12-05T08:56:38.565Z,6.30
2018-12-05T08:59:07.844Z,6.40
2018-12-05T09:01:37.216Z,6.50
2018-12-05T09:04:07.043Z,6.60
2018-12-05T09:06:36.682Z,6.60
2018-12-05T09:09:29.253Z,6.70
2018-12-05T09:11:58.710Z,6.80
2018-12-05T09:14:28.907Z,6.90
2018-12-05T09:16:57.428Z,7.00
2018-12-05T09:19:26.632Z,7.10
2018-12-05T09:22:02.854Z,7.20
2018-12-05T09:24:32.260Z,7.30
2018-12-05T09:27:02.032Z,7.50
2018-12-05T09:29:31.234Z,7.50
2018-12-05T09:32:00.939Z,7.70
2018-12-05T09:36:58.939Z,8.10
2018-12-05T09:39:28.302Z,7.90
2018-12-05T09:41:58.301Z,8.00
2018-12-05T09:44:27.589Z,8.10
2018-12-05T09:46:57.625Z,8.10
2018-12-05T09:49:27.114Z,8.10
2018-12-05T09:51:56.660Z,8.10
2018-12-05T09:54:25.993Z,8.10
2018-12-05T09:56:56.033Z,8.10
2018-12-05T09:59:26.579Z,8.00
2018-12-05T10:01:56.686Z,8.10
2018-12-05T10:04:25.967Z,8.10
2018-12-05T10:06:55.170Z,8.10
2018-12-05T10:09:25.553Z,8.20
2018-12-05T10:11:58.379Z,8.40
2018-12-05T10:14:27.614Z,8.50
2018-12-05T10:16:57.967Z,8.70
2018-12-05T10:19:28.975Z,8.80
2018-12-05T10:21:58.791Z,8.90
2018-12-05T10:24:29.504Z,8.90
2018-12-05T10:26:58.733Z,9.10
2018-12-05T10:29:28.287Z,9.20
2018-12-05T10:31:57.876Z,9.30
2018-12-05T10:34:27.130Z,9.40
2018-12-05T10:36:57.384Z,9.50
2018-12-05T10:39:26.641Z,9.60
2018-12-05T10:41:56.967Z,9.60
2018-12-05T10:44:26.216Z,9.70
2018-12-05T10:46:55.448Z,9.70
2018-12-05T10:49:24.714Z,9.60
2018-12-05T10:52:41.032Z,9.60
2018-12-05T10:55:55.569Z,9.50
2018-12-05T11:02:20.779Z,9.50
2018-12-05T11:08:01.900Z,9.70
2018-12-05T11:10:48.168Z,9.80
2018-12-05T11:14:00.026Z,10.00
2018-12-05T11:17:09.065Z,10.20
2018-12-05T11:19:56.003Z,10.40
2018-12-05T11:22:40.572Z,10.50
2018-12-05T11:25:59.059Z,10.50
2018-12-05T11:28:28.899Z,10.70
2018-12-05T11:30:58.288Z,10.80
2018-12-05T11:33:27.796Z,10.70
2018-12-05T11:35:57.253Z,10.70
2018-12-05T11:38:27.519Z,10.80
2018-12-05T11:40:57.182Z,10.80
2018-12-05T11:43:26.916Z,10.80
2018-12-05T11:45:57.758Z,10.80
2018-12-05T11:48:26.986Z,10.90
2018-12-05T11:50:59.341Z,10.90
2018-12-05T11:53:29.722Z,10.90
2018-12-05T11:55:59.564Z,10.90
2018-12-05T11:58:34.322Z,10.90
2018-12-05T12:01:04.802Z,10.90
2018-12-05T12:03:34.751Z,10.90
2018-12-05T12:06:03.970Z,10.90
2018-12-05T12:08:33.941Z,10.80
2018-12-05T12:11:05.555Z,10.80
2018-12-05T12:13:34.771Z,10.70
2018-12-05T12:16:04.758Z,10.60
2018-12-05T12:18:33.968Z,10.50
2018-12-05T12:21:03.747Z,10.40
2018-12-05T12:23:32.987Z,10.30
2018-12-05T12:26:03.269Z,10.20
2018-12-05T12:28:33.793Z,10.10
2018-12-05T12:31:04.945Z,10.20
2018-12-05T12:33:35.812Z,10.20
2018-12-05T12:36:05.433Z,10.30
2018-12-05T12:38:34.706Z,10.30
2018-12-05T12:41:04.141Z,10.30
2018-12-05T12:43:34.565Z,10.40
2018-12-05T12:46:03.862Z,10.50
2018-12-05T12:48:33.115Z,10.50
2018-12-05T12:51:03.386Z,10.50
2018-12-05T12:53:33.223Z,10.60
2018-12-05T12:56:02.462Z,10.70
2018-12-05T12:58:32.433Z,10.80
2018-12-05T13:01:02.750Z,10.80
2018-12-05T13:03:32.062Z,10.80
2018-12-05T13:06:01.345Z,10.80
2018-12-05T13:08:31.961Z,10.80
2018-12-05T13:11:06.075Z,10.70
2018-12-05T13:13:35.302Z,10.70
2018-12-05T13:16:06.654Z,10.70
2018-12-05T13:18:36.796Z,10.70
2018-12-05T13:21:12.001Z,10.60
2018-12-05T13:23:43.372Z,10.50
2018-12-05T13:26:13.304Z,10.50
2018-12-05T13:28:42.547Z,10.50
2018-12-05T13:31:15.469Z,10.60
2018-12-05T13:33:45.463Z,10.60
2018-12-05T13:36:15.049Z,10.70
2018-12-05T13:38:44.284Z,10.70
2018-12-05T13:41:15.392Z,10.60
2018-12-05T13:43:46.896Z,10.50
2018-12-05T13:46:18.260Z,10.40
2018-12-05T13:48:47.680Z,10.40
2018-12-05T14:04:08.820Z,10.30
2018-12-05T14:06:38.138Z,10.30
2018-12-05T14:09:08.632Z,10.30
2018-12-05T14:11:41.355Z,10.30
2018-12-05T14:14:10.881Z,10.30
2018-12-05T14:16:41.102Z,10.30
2018-12-05T14:19:12.799Z,10.20
2018-12-05T14:21:44.123Z,10.00
2018-12-05T14:24:14.206Z,9.90
2018-12-05T14:26:43.966Z,9.80
2018-12-05T14:29:14.067Z,9.70
2018-12-05T14:31:43.458Z,9.60
2018-12-05T14:34:12.657Z,9.60
2018-12-05T14:36:43.938Z,9.60
2018-12-05T14:39:13.495Z,9.50
2018-12-05T14:41:42.803Z,9.50
2018-12-05T14:44:12.008Z,9.40
2018-12-05T14:46:43.573Z,9.30
2018-12-05T14:49:13.629Z,9.30
2018-12-05T14:51:45.026Z,9.20
2018-12-05T14:54:14.254Z,9.20
2018-12-05T14:56:43.803Z,9.20
2018-12-05T14:59:12.994Z,9.20
2018-12-05T15:01:43.946Z,9.20
2018-12-05T15:04:14.367Z,9.20
2018-12-05T15:06:44.559Z,9.20
2018-12-05T15:09:14.851Z,9.20
2018-12-05T15:11:47.444Z,9.10
2018-12-05T15:14:16.699Z,9.00
2018-12-05T15:16:45.961Z,9.00
2018-12-05T15:19:16.260Z,8.90
2018-12-05T15:21:47.168Z,8.90
2018-12-05T15:24:17.174Z,8.90
2018-12-05T15:26:47.325Z,8.90
2018-12-05T15:29:18.459Z,8.90
2018-12-05T15:31:50.155Z,8.90
2018-12-05T15:34:20.028Z,8.80
2018-12-05T15:36:49.584Z,8.80
2018-12-05T15:39:23.915Z,8.70
2018-12-05T15:41:53.254Z,8.70
2018-12-05T15:44:23.255Z,8.60
2018-12-05T15:46:52.581Z,8.60
2018-12-05T15:49:26.548Z,8.50
2018-12-05T15:52:00.554Z,8.50
2018-12-05T15:54:31.822Z,8.50
2018-12-05T15:57:09.531Z,8.50
2018-12-05T15:59:32.072Z,8.60
2018-12-05T16:02:01.598Z,8.60
2018-12-05T16:04:34.802Z,8.60
2018-12-05T16:07:05.438Z,8.50
2018-12-05T16:09:35.418Z,8.40
2018-12-05T16:12:05.534Z,8.40
2018-12-05T16:14:35.375Z,8.40
2018-12-05T16:17:08.257Z,8.30
2018-12-05T16:19:38.835Z,8.30
2018-12-05T16:22:11.036Z,8.20
2018-12-05T16:24:40.314Z,8.20
2018-12-05T16:27:09.753Z,8.30
2018-12-05T16:29:38.961Z,8.30
2018-12-05T16:32:09.162Z,8.30
2018-12-05T16:34:39.864Z,8.40
2018-12-05T16:37:09.724Z,8.40
2018-12-05T16:39:42.471Z,8.50
2018-12-05T16:42:12.282Z,8.40
2018-12-05T16:44:41.860Z,8.40
2018-12-05T16:47:18.724Z,8.40
2018-12-05T16:49:49.092Z,8.30
2018-12-05T16:52:19.769Z,8.40
2018-12-05T16:54:55.200Z,8.40
2018-12-05T16:57:35.432Z,8.30
2018-12-05T17:00:11.231Z,8.20
2018-12-05T17:02:41.142Z,8.20
2018-12-05T17:05:11.265Z,8.20
2018-12-05T17:07:41.248Z,8.20
2018-12-05T17:10:11.099Z,8.10
2018-12-05T17:12:40.712Z,8.10
2018-12-05T17:15:11.533Z,8.10
2018-12-05T17:17:41.934Z,8.10
2018-12-05T17:20:11.431Z,8.00
2018-12-05T17:22:41.701Z,8.00
2018-12-05T17:25:12.629Z,7.90
2018-12-05T17:27:42.124Z,7.90
2018-12-05T17:30:12.234Z,7.90
2018-12-05T17:32:48.731Z,7.90
2018-12-05T17:35:19.347Z,7.90
2018-12-05T17:37:50.473Z,7.80
2018-12-05T17:40:20.308Z,7.90
2018-12-05T17:42:50.230Z,7.90
2018-12-05T17:48:56.658Z,7.70
2018-12-05T18:07:08.811Z,7.60
2018-12-05T18:09:40.662Z,7.20
2018-12-05T18:12:12.636Z,7.20
2018-12-05T18:14:42.429Z,7.30
2018-12-05T18:17:13.305Z,7.20
2018-12-05T18:19:44.681Z,7.10
2018-12-05T18:22:15.952Z,7.10
2018-12-05T18:24:51.845Z,7.20
2018-12-05T18:27:25.131Z,7.20
2018-12-05T18:30:05.709Z,7.10
2018-12-05T18:32:41.281Z,7.20
2018-12-05T18:35:14.429Z,7.10
2018-12-05T18:37:46.328Z,7.10
2018-12-05T18:40:28.127Z,7.10
2018-12-05T18:43:38.081Z,7.10
2018-12-05T18:46:14.391Z,7.00
2018-12-05T18:48:54.945Z,7.00
2018-12-05T18:51:38.039Z,7.00
2018-12-05T18:54:14.319Z,7.00
2018-12-05T18:56:44.037Z,7.00
2018-12-05T18:59:44.299Z,7.00
2018-12-05T19:02:23.954Z,7.00
2018-12-05T19:05:02.066Z,7.00
2018-12-05T19:07:47.578Z,6.90
2018-12-05T19:10:17.720Z,7.00
2018-12-05T19:13:27.635Z,6.90
2018-12-05T19:16:22.691Z,6.90
2018-12-05T19:23:49.035Z,6.80
2018-12-05T19:26:47.032Z,6.90
2018-12-05T19:30:24.974Z,6.90
2018-12-05T19:33:11.909Z,6.90
2018-12-05T19:35:58.657Z,6.80
2018-12-05T19:38:46.134Z,6.80
2018-12-05T19:41:17.496Z,6.80
2018-12-05T19:43:49.334Z,6.80
2018-12-05T19:46:19.787Z,6.90
2018-12-05T19:48:54.717Z,6.90
2018-12-05T19:51:29.669Z,6.90
2018-12-05T19:54:29.036Z,7.00
2018-12-05T19:57:00.632Z,7.00
2018-12-05T20:03:09.223Z,7.00
2018-12-05T20:10:57.817Z,7.00
2018-12-05T20:20:09.632Z,7.00
2018-12-05T20:23:17.579Z,7.00
2018-12-05T20:29:37.134Z,7.00
2018-12-05T20:32:10.191Z,7.00
2018-12-05T20:34:59.369Z,7.00
2018-12-05T20:37:35.887Z,7.00
2018-12-05T20:40:09.021Z,7.00
2018-12-05T20:42:39.483Z,7.00
2018-12-05T20:45:10.767Z,7.00
2018-12-05T20:47:43.510Z,7.00
2018-12-05T20:50:13.807Z,7.00
2018-12-05T20:52:45.080Z,6.90
2018-12-05T20:55:15.292Z,6.90
2018-12-05T20:57:45.094Z,6.90
2018-12-05T21:00:18.872Z,6.90
2018-12-05T21:02:48.673Z,6.90
2018-12-05T21:05:18.417Z,6.90
2018-12-05T21:11:12.391Z,6.80
2018-12-05T21:13:45.194Z,6.70
2018-12-05T21:16:30.667Z,6.70
2018-12-05T21:19:00.461Z,6.70
2018-12-05T21:21:40.343Z,6.50
2018-12-05T21:24:16.652Z,6.40
2018-12-05T21:26:58.359Z,6.30
2018-12-05T21:29:35.550Z,6.20
2018-12-05T21:32:17.516Z,6.10
2018-12-05T21:34:53.165Z,6.10
2018-12-05T21:37:33.178Z,5.90
2018-12-05T21:40:08.419Z,5.90
2018-12-05T21:42:45.984Z,5.90
2018-12-05T21:45:21.590Z,5.70
2018-12-05T21:48:18.874Z,5.70
2018-12-05T21:51:00.028Z,5.70
2018-12-05T21:53:30.575Z,5.70
2018-12-05T21:56:03.960Z,5.70
2018-12-05T22:01:34.296Z,6.00
2018-12-05T22:04:04.350Z,6.00
2018-12-05T22:06:38.472Z,5.80
2018-12-05T22:09:14.443Z,5.80
2018-12-05T22:12:04.601Z,5.80
2018-12-05T22:14:51.756Z,5.80
2018-12-05T22:17:29.939Z,5.60
2018-12-05T22:20:16.918Z,5.40
2018-12-05T22:22:58.689Z,5.50
2018-12-05T22:25:47.916Z,5.50
2018-12-05T22:28:29.483Z,5.50
2018-12-05T22:31:12.572Z,5.60
2018-12-05T22:33:44.301Z,5.60
2018-12-05T22:36:13.589Z,5.70
2018-12-05T22:38:42.943Z,5.80
2018-12-05T22:41:12.377Z,5.90
2018-12-05T22:43:41.764Z,6.00
2018-12-05T22:46:11.026Z,6.10
2018-12-05T22:48:41.418Z,6.20
2018-12-05T22:51:11.093Z,6.20
2018-12-05T22:53:40.547Z,6.30
2018-12-05T22:56:10.721Z,6.30
2018-12-05T22:58:39.950Z,6.30
2018-12-05T23:01:10.274Z,6.20
2018-12-05T23:03:40.234Z,6.20
2018-12-05T23:06:09.718Z,6.30
2018-12-05T23:08:38.977Z,6.40
2018-12-05T23:11:08.260Z,6.50
2018-12-05T23:13:37.978Z,6.50
2018-12-05T23:16:07.234Z,6.50
2018-12-05T23:18:38.128Z,6.50
2018-12-05T23:21:08.219Z,6.60
2018-12-05T23:23:37.751Z,6.60
2018-12-05T23:26:07.103Z,6.60
2018-12-05T23:28:37.086Z,6.60
2018-12-05T23:31:07.404Z,6.50
2018-12-05T23:33:37.432Z,6.40
2018-12-05T23:36:07.584Z,6.50
2018-12-05T23:38:36.793Z,6.50
2018-12-05T23:41:06.226Z,6.50
2018-12-05T23:43:36.144Z,6.40
2018-12-05T23:46:05.390Z,6.40
2018-12-05T23:48:35.204Z,6.30
2018-12-05T23:51:04.490Z,6.40
2018-12-05T23:53:33.689Z,6.50
2018-12-05T23:56:03.619Z,6.60
2018-12-05T23:58:33.878Z,6.60
